<?xml version="1.0" encoding="UTF-8" standalone="no" ?>
<gpx xmlns="http://www.topografix.com/GPX/1/1" xmlns:xsi="http://www.w3.org/2001/XMLSchema-instance" xsi:schemaLocation="http://www.topografix.com/GPX/1/1 http://www.topografix.com/GPX/1/1/gpx.xsd" version="1.1" creator="VisuGPX - https://www.visugpx.com">
  <metadata>
    <name>Vol du 13 07 17</name>
    <desc><![CDATA[Vol du 13 juillet 17 de 15h00 à 16h30 avec Fabien M.]]></desc>
  </metadata>
  <trk>
    <name><![CDATA[Vol du 13 07 17_1]]></name>
    <trkseg>
      <trkpt lat="47.7377" lon="7.43">
        <ele>243</ele>
        <time>2017-07-13T13:04:40Z</time>
      </trkpt>
      <trkpt lat="47.7384" lon="7.4304">
        <ele>243</ele>
        <time>2017-07-13T13:04:45Z</time>
      </trkpt>
      <trkpt lat="47.7394" lon="7.4311">
        <ele>243</ele>
        <time>2017-07-13T13:04:50Z</time>
      </trkpt>
      <trkpt lat="47.7414" lon="7.4323">
        <ele>243</ele>
        <time>2017-07-13T13:04:58Z</time>
      </trkpt>
      <trkpt lat="47.7522" lon="7.4387">
        <ele>306</ele>
        <time>2017-07-13T13:05:36Z</time>
      </trkpt>
      <trkpt lat="47.7534" lon="7.4398">
        <ele>322</ele>
        <time>2017-07-13T13:05:41Z</time>
      </trkpt>
      <trkpt lat="47.7546" lon="7.4413">
        <ele>342</ele>
        <time>2017-07-13T13:05:46Z</time>
      </trkpt>
      <trkpt lat="47.7555" lon="7.4432">
        <ele>362</ele>
        <time>2017-07-13T13:05:51Z</time>
      </trkpt>
      <trkpt lat="47.7561" lon="7.4454">
        <ele>375</ele>
        <time>2017-07-13T13:05:56Z</time>
      </trkpt>
      <trkpt lat="47.7567" lon="7.4476">
        <ele>395</ele>
        <time>2017-07-13T13:06:01Z</time>
      </trkpt>
      <trkpt lat="47.7584" lon="7.4525">
        <ele>444</ele>
        <time>2017-07-13T13:06:13Z</time>
      </trkpt>
      <trkpt lat="47.7593" lon="7.4546">
        <ele>449</ele>
        <time>2017-07-13T13:06:18Z</time>
      </trkpt>
      <trkpt lat="47.764" lon="7.4628">
        <ele>495</ele>
        <time>2017-07-13T13:06:38Z</time>
      </trkpt>
      <trkpt lat="47.7781" lon="7.4874">
        <ele>556</ele>
        <time>2017-07-13T13:07:32Z</time>
      </trkpt>
      <trkpt lat="47.7797" lon="7.4894">
        <ele>557</ele>
        <time>2017-07-13T13:07:37Z</time>
      </trkpt>
      <trkpt lat="47.7817" lon="7.4907">
        <ele>558</ele>
        <time>2017-07-13T13:07:42Z</time>
      </trkpt>
      <trkpt lat="47.788" lon="7.4941">
        <ele>568</ele>
        <time>2017-07-13T13:07:58Z</time>
      </trkpt>
      <trkpt lat="47.8005" lon="7.5034">
        <ele>568</ele>
        <time>2017-07-13T13:08:33Z</time>
      </trkpt>
      <trkpt lat="47.8066" lon="7.5093">
        <ele>565</ele>
        <time>2017-07-13T13:08:51Z</time>
      </trkpt>
      <trkpt lat="47.8149" lon="7.5186">
        <ele>557</ele>
        <time>2017-07-13T13:09:16Z</time>
      </trkpt>
      <trkpt lat="47.8166" lon="7.5216">
        <ele>556</ele>
        <time>2017-07-13T13:09:22Z</time>
      </trkpt>
      <trkpt lat="47.8176" lon="7.5245">
        <ele>554</ele>
        <time>2017-07-13T13:09:27Z</time>
      </trkpt>
      <trkpt lat="47.8182" lon="7.5277">
        <ele>554</ele>
        <time>2017-07-13T13:09:32Z</time>
      </trkpt>
      <trkpt lat="47.8186" lon="7.5322">
        <ele>559</ele>
        <time>2017-07-13T13:09:39Z</time>
      </trkpt>
      <trkpt lat="47.8186" lon="7.5354">
        <ele>557</ele>
        <time>2017-07-13T13:09:44Z</time>
      </trkpt>
      <trkpt lat="47.8183" lon="7.5386">
        <ele>557</ele>
        <time>2017-07-13T13:09:49Z</time>
      </trkpt>
      <trkpt lat="47.8177" lon="7.5417">
        <ele>555</ele>
        <time>2017-07-13T13:09:54Z</time>
      </trkpt>
      <trkpt lat="47.8168" lon="7.5447">
        <ele>556</ele>
        <time>2017-07-13T13:09:59Z</time>
      </trkpt>
      <trkpt lat="47.8155" lon="7.5472">
        <ele>561</ele>
        <time>2017-07-13T13:10:04Z</time>
      </trkpt>
      <trkpt lat="47.8139" lon="7.5493">
        <ele>564</ele>
        <time>2017-07-13T13:10:09Z</time>
      </trkpt>
      <trkpt lat="47.812" lon="7.5511">
        <ele>568</ele>
        <time>2017-07-13T13:10:14Z</time>
      </trkpt>
      <trkpt lat="47.8099" lon="7.5523">
        <ele>571</ele>
        <time>2017-07-13T13:10:19Z</time>
      </trkpt>
      <trkpt lat="47.8077" lon="7.5528">
        <ele>576</ele>
        <time>2017-07-13T13:10:24Z</time>
      </trkpt>
      <trkpt lat="47.7978" lon="7.5539">
        <ele>637</ele>
        <time>2017-07-13T13:10:45Z</time>
      </trkpt>
      <trkpt lat="47.7911" lon="7.5544">
        <ele>682</ele>
        <time>2017-07-13T13:10:59Z</time>
      </trkpt>
      <trkpt lat="47.7602" lon="7.5621">
        <ele>729</ele>
        <time>2017-07-13T13:11:59Z</time>
      </trkpt>
      <trkpt lat="47.7403" lon="7.5669">
        <ele>730</ele>
        <time>2017-07-13T13:12:37Z</time>
      </trkpt>
      <trkpt lat="47.7161" lon="7.5752">
        <ele>706</ele>
        <time>2017-07-13T13:13:23Z</time>
      </trkpt>
      <trkpt lat="47.7134" lon="7.5756">
        <ele>710</ele>
        <time>2017-07-13T13:13:28Z</time>
      </trkpt>
      <trkpt lat="47.7101" lon="7.5756">
        <ele>709</ele>
        <time>2017-07-13T13:13:34Z</time>
      </trkpt>
      <trkpt lat="47.6895" lon="7.5735">
        <ele>680</ele>
        <time>2017-07-13T13:14:14Z</time>
      </trkpt>
      <trkpt lat="47.6771" lon="7.575">
        <ele>699</ele>
        <time>2017-07-13T13:14:40Z</time>
      </trkpt>
      <trkpt lat="47.6494" lon="7.5801">
        <ele>759</ele>
        <time>2017-07-13T13:15:40Z</time>
      </trkpt>
      <trkpt lat="47.644" lon="7.5805">
        <ele>766</ele>
        <time>2017-07-13T13:15:51Z</time>
      </trkpt>
      <trkpt lat="47.6414" lon="7.5803">
        <ele>772</ele>
        <time>2017-07-13T13:15:56Z</time>
      </trkpt>
      <trkpt lat="47.6285" lon="7.5785">
        <ele>792</ele>
        <time>2017-07-13T13:16:22Z</time>
      </trkpt>
      <trkpt lat="47.6261" lon="7.579">
        <ele>798</ele>
        <time>2017-07-13T13:16:27Z</time>
      </trkpt>
      <trkpt lat="47.6239" lon="7.5806">
        <ele>806</ele>
        <time>2017-07-13T13:16:32Z</time>
      </trkpt>
      <trkpt lat="47.6221" lon="7.583">
        <ele>811</ele>
        <time>2017-07-13T13:16:37Z</time>
      </trkpt>
      <trkpt lat="47.6208" lon="7.586">
        <ele>811</ele>
        <time>2017-07-13T13:16:42Z</time>
      </trkpt>
      <trkpt lat="47.6201" lon="7.5895">
        <ele>809</ele>
        <time>2017-07-13T13:16:47Z</time>
      </trkpt>
      <trkpt lat="47.6199" lon="7.593">
        <ele>812</ele>
        <time>2017-07-13T13:16:52Z</time>
      </trkpt>
      <trkpt lat="47.6204" lon="7.5963">
        <ele>816</ele>
        <time>2017-07-13T13:16:57Z</time>
      </trkpt>
      <trkpt lat="47.6214" lon="7.5992">
        <ele>827</ele>
        <time>2017-07-13T13:17:02Z</time>
      </trkpt>
      <trkpt lat="47.6228" lon="7.6016">
        <ele>830</ele>
        <time>2017-07-13T13:17:07Z</time>
      </trkpt>
      <trkpt lat="47.6245" lon="7.6036">
        <ele>831</ele>
        <time>2017-07-13T13:17:12Z</time>
      </trkpt>
      <trkpt lat="47.6265" lon="7.6051">
        <ele>834</ele>
        <time>2017-07-13T13:17:17Z</time>
      </trkpt>
      <trkpt lat="47.6286" lon="7.6057">
        <ele>843</ele>
        <time>2017-07-13T13:17:22Z</time>
      </trkpt>
      <trkpt lat="47.6307" lon="7.6049">
        <ele>848</ele>
        <time>2017-07-13T13:17:27Z</time>
      </trkpt>
      <trkpt lat="47.6313" lon="7.6021">
        <ele>852</ele>
        <time>2017-07-13T13:17:32Z</time>
      </trkpt>
      <trkpt lat="47.6289" lon="7.5991">
        <ele>852</ele>
        <time>2017-07-13T13:17:37Z</time>
      </trkpt>
      <trkpt lat="47.626" lon="7.5957">
        <ele>850</ele>
        <time>2017-07-13T13:17:44Z</time>
      </trkpt>
      <trkpt lat="47.6194" lon="7.5858">
        <ele>847</ele>
        <time>2017-07-13T13:18:03Z</time>
      </trkpt>
      <trkpt lat="47.6124" lon="7.5735">
        <ele>852</ele>
        <time>2017-07-13T13:18:25Z</time>
      </trkpt>
      <trkpt lat="47.602" lon="7.5515">
        <ele>861</ele>
        <time>2017-07-13T13:19:00Z</time>
      </trkpt>
      <trkpt lat="47.5936" lon="7.53">
        <ele>850</ele>
        <time>2017-07-13T13:19:31Z</time>
      </trkpt>
      <trkpt lat="47.5882" lon="7.5124">
        <ele>845</ele>
        <time>2017-07-13T13:19:55Z</time>
      </trkpt>
      <trkpt lat="47.5823" lon="7.4893">
        <ele>849</ele>
        <time>2017-07-13T13:20:28Z</time>
      </trkpt>
      <trkpt lat="47.579" lon="7.4808">
        <ele>850</ele>
        <time>2017-07-13T13:20:41Z</time>
      </trkpt>
      <trkpt lat="47.5621" lon="7.4421">
        <ele>839</ele>
        <time>2017-07-13T13:21:41Z</time>
      </trkpt>
      <trkpt lat="47.5581" lon="7.4335">
        <ele>844</ele>
        <time>2017-07-13T13:21:54Z</time>
      </trkpt>
      <trkpt lat="47.553" lon="7.4226">
        <ele>861</ele>
        <time>2017-07-13T13:22:12Z</time>
      </trkpt>
      <trkpt lat="47.5502" lon="7.4164">
        <ele>910</ele>
        <time>2017-07-13T13:22:24Z</time>
      </trkpt>
      <trkpt lat="47.5483" lon="7.4124">
        <ele>940</ele>
        <time>2017-07-13T13:22:32Z</time>
      </trkpt>
      <trkpt lat="47.5439" lon="7.4009">
        <ele>1005</ele>
        <time>2017-07-13T13:22:53Z</time>
      </trkpt>
      <trkpt lat="47.5412" lon="7.393">
        <ele>1036</ele>
        <time>2017-07-13T13:23:06Z</time>
      </trkpt>
      <trkpt lat="47.5267" lon="7.3545">
        <ele>1091</ele>
        <time>2017-07-13T13:24:06Z</time>
      </trkpt>
      <trkpt lat="47.5138" lon="7.3223">
        <ele>1105</ele>
        <time>2017-07-13T13:24:57Z</time>
      </trkpt>
      <trkpt lat="47.5122" lon="7.3162">
        <ele>1107</ele>
        <time>2017-07-13T13:25:06Z</time>
      </trkpt>
      <trkpt lat="47.5077" lon="7.2942">
        <ele>1112</ele>
        <time>2017-07-13T13:25:38Z</time>
      </trkpt>
      <trkpt lat="47.5012" lon="7.2498">
        <ele>1114</ele>
        <time>2017-07-13T13:26:39Z</time>
      </trkpt>
      <trkpt lat="47.4977" lon="7.2368">
        <ele>1112</ele>
        <time>2017-07-13T13:26:58Z</time>
      </trkpt>
      <trkpt lat="47.4978" lon="7.2335">
        <ele>1113</ele>
        <time>2017-07-13T13:27:03Z</time>
      </trkpt>
      <trkpt lat="47.4994" lon="7.2314">
        <ele>1114</ele>
        <time>2017-07-13T13:27:08Z</time>
      </trkpt>
      <trkpt lat="47.5013" lon="7.2302">
        <ele>1106</ele>
        <time>2017-07-13T13:27:13Z</time>
      </trkpt>
      <trkpt lat="47.5035" lon="7.2296">
        <ele>1104</ele>
        <time>2017-07-13T13:27:18Z</time>
      </trkpt>
      <trkpt lat="47.507" lon="7.2289">
        <ele>1106</ele>
        <time>2017-07-13T13:27:26Z</time>
      </trkpt>
      <trkpt lat="47.5342" lon="7.2248">
        <ele>1104</ele>
        <time>2017-07-13T13:28:26Z</time>
      </trkpt>
      <trkpt lat="47.5466" lon="7.2235">
        <ele>1094</ele>
        <time>2017-07-13T13:28:53Z</time>
      </trkpt>
      <trkpt lat="47.5517" lon="7.2231">
        <ele>1089</ele>
        <time>2017-07-13T13:29:04Z</time>
      </trkpt>
      <trkpt lat="47.5716" lon="7.2189">
        <ele>1082</ele>
        <time>2017-07-13T13:29:49Z</time>
      </trkpt>
      <trkpt lat="47.585" lon="7.2169">
        <ele>1097</ele>
        <time>2017-07-13T13:30:21Z</time>
      </trkpt>
      <trkpt lat="47.5902" lon="7.2151">
        <ele>1100</ele>
        <time>2017-07-13T13:30:33Z</time>
      </trkpt>
      <trkpt lat="47.6104" lon="7.2063">
        <ele>1143</ele>
        <time>2017-07-13T13:31:18Z</time>
      </trkpt>
      <trkpt lat="47.6135" lon="7.2042">
        <ele>1143</ele>
        <time>2017-07-13T13:31:25Z</time>
      </trkpt>
      <trkpt lat="47.6395" lon="7.184">
        <ele>1131</ele>
        <time>2017-07-13T13:32:25Z</time>
      </trkpt>
      <trkpt lat="47.6637" lon="7.1627">
        <ele>1108</ele>
        <time>2017-07-13T13:33:25Z</time>
      </trkpt>
      <trkpt lat="47.6887" lon="7.1425">
        <ele>1102</ele>
        <time>2017-07-13T13:34:25Z</time>
      </trkpt>
      <trkpt lat="47.6954" lon="7.1368">
        <ele>1106</ele>
        <time>2017-07-13T13:34:42Z</time>
      </trkpt>
      <trkpt lat="47.7079" lon="7.1259">
        <ele>1098</ele>
        <time>2017-07-13T13:35:14Z</time>
      </trkpt>
      <trkpt lat="47.7142" lon="7.1212">
        <ele>1097</ele>
        <time>2017-07-13T13:35:29Z</time>
      </trkpt>
      <trkpt lat="47.7164" lon="7.1202">
        <ele>1099</ele>
        <time>2017-07-13T13:35:34Z</time>
      </trkpt>
      <trkpt lat="47.7187" lon="7.1197">
        <ele>1105</ele>
        <time>2017-07-13T13:35:39Z</time>
      </trkpt>
      <trkpt lat="47.721" lon="7.1197">
        <ele>1102</ele>
        <time>2017-07-13T13:35:44Z</time>
      </trkpt>
      <trkpt lat="47.7234" lon="7.12">
        <ele>1093</ele>
        <time>2017-07-13T13:35:49Z</time>
      </trkpt>
      <trkpt lat="47.7265" lon="7.1212">
        <ele>1097</ele>
        <time>2017-07-13T13:35:56Z</time>
      </trkpt>
      <trkpt lat="47.7409" lon="7.1268">
        <ele>1101</ele>
        <time>2017-07-13T13:36:29Z</time>
      </trkpt>
      <trkpt lat="47.7507" lon="7.1332">
        <ele>1098</ele>
        <time>2017-07-13T13:36:53Z</time>
      </trkpt>
      <trkpt lat="47.7527" lon="7.1348">
        <ele>1088</ele>
        <time>2017-07-13T13:36:58Z</time>
      </trkpt>
      <trkpt lat="47.755" lon="7.1375">
        <ele>1089</ele>
        <time>2017-07-13T13:37:04Z</time>
      </trkpt>
      <trkpt lat="47.7594" lon="7.1442">
        <ele>1091</ele>
        <time>2017-07-13T13:37:18Z</time>
      </trkpt>
      <trkpt lat="47.7608" lon="7.1468">
        <ele>1092</ele>
        <time>2017-07-13T13:37:23Z</time>
      </trkpt>
      <trkpt lat="47.7648" lon="7.1557">
        <ele>1090</ele>
        <time>2017-07-13T13:37:39Z</time>
      </trkpt>
      <trkpt lat="47.7671" lon="7.161">
        <ele>1089</ele>
        <time>2017-07-13T13:37:48Z</time>
      </trkpt>
      <trkpt lat="47.7703" lon="7.1672">
        <ele>1091</ele>
        <time>2017-07-13T13:37:59Z</time>
      </trkpt>
      <trkpt lat="47.7804" lon="7.1824">
        <ele>1091</ele>
        <time>2017-07-13T13:38:31Z</time>
      </trkpt>
      <trkpt lat="47.7844" lon="7.1873">
        <ele>1097</ele>
        <time>2017-07-13T13:38:43Z</time>
      </trkpt>
      <trkpt lat="47.7863" lon="7.1891">
        <ele>1095</ele>
        <time>2017-07-13T13:38:48Z</time>
      </trkpt>
      <trkpt lat="47.7952" lon="7.1959">
        <ele>1084</ele>
        <time>2017-07-13T13:39:11Z</time>
      </trkpt>
      <trkpt lat="47.8188" lon="7.2115">
        <ele>1099</ele>
        <time>2017-07-13T13:40:11Z</time>
      </trkpt>
      <trkpt lat="47.8305" lon="7.2187">
        <ele>1096</ele>
        <time>2017-07-13T13:40:41Z</time>
      </trkpt>
      <trkpt lat="47.8422" lon="7.227">
        <ele>1097</ele>
        <time>2017-07-13T13:41:12Z</time>
      </trkpt>
      <trkpt lat="47.8565" lon="7.2358">
        <ele>1101</ele>
        <time>2017-07-13T13:41:49Z</time>
      </trkpt>
      <trkpt lat="47.8789" lon="7.2533">
        <ele>1094</ele>
        <time>2017-07-13T13:42:49Z</time>
      </trkpt>
      <trkpt lat="47.8852" lon="7.2574">
        <ele>1092</ele>
        <time>2017-07-13T13:43:05Z</time>
      </trkpt>
      <trkpt lat="47.8889" lon="7.2603">
        <ele>1092</ele>
        <time>2017-07-13T13:43:15Z</time>
      </trkpt>
      <trkpt lat="47.9087" lon="7.2722">
        <ele>1083</ele>
        <time>2017-07-13T13:44:06Z</time>
      </trkpt>
      <trkpt lat="47.9107" lon="7.2728">
        <ele>1083</ele>
        <time>2017-07-13T13:44:11Z</time>
      </trkpt>
      <trkpt lat="47.9253" lon="7.2753">
        <ele>1083</ele>
        <time>2017-07-13T13:44:47Z</time>
      </trkpt>
      <trkpt lat="47.9442" lon="7.2807">
        <ele>1098</ele>
        <time>2017-07-13T13:45:32Z</time>
      </trkpt>
      <trkpt lat="47.9473" lon="7.2812">
        <ele>1095</ele>
        <time>2017-07-13T13:45:39Z</time>
      </trkpt>
      <trkpt lat="47.9746" lon="7.2899">
        <ele>1098</ele>
        <time>2017-07-13T13:46:39Z</time>
      </trkpt>
      <trkpt lat="47.9768" lon="7.2902">
        <ele>1104</ele>
        <time>2017-07-13T13:46:44Z</time>
      </trkpt>
      <trkpt lat="47.9812" lon="7.2902">
        <ele>1096</ele>
        <time>2017-07-13T13:46:53Z</time>
      </trkpt>
      <trkpt lat="47.9909" lon="7.2902">
        <ele>1097</ele>
        <time>2017-07-13T13:47:13Z</time>
      </trkpt>
      <trkpt lat="48.0138" lon="7.2917">
        <ele>1084</ele>
        <time>2017-07-13T13:48:05Z</time>
      </trkpt>
      <trkpt lat="48.0265" lon="7.2911">
        <ele>1082</ele>
        <time>2017-07-13T13:48:35Z</time>
      </trkpt>
      <trkpt lat="48.0536" lon="7.2932">
        <ele>1106</ele>
        <time>2017-07-13T13:49:35Z</time>
      </trkpt>
      <trkpt lat="48.0756" lon="7.2958">
        <ele>1103</ele>
        <time>2017-07-13T13:50:22Z</time>
      </trkpt>
      <trkpt lat="48.085" lon="7.2984">
        <ele>1102</ele>
        <time>2017-07-13T13:50:43Z</time>
      </trkpt>
      <trkpt lat="48.1104" lon="7.3073">
        <ele>1104</ele>
        <time>2017-07-13T13:51:43Z</time>
      </trkpt>
      <trkpt lat="48.1241" lon="7.3119">
        <ele>1107</ele>
        <time>2017-07-13T13:52:15Z</time>
      </trkpt>
      <trkpt lat="48.1375" lon="7.3157">
        <ele>1102</ele>
        <time>2017-07-13T13:52:44Z</time>
      </trkpt>
      <trkpt lat="48.1653" lon="7.3246">
        <ele>1099</ele>
        <time>2017-07-13T13:53:44Z</time>
      </trkpt>
      <trkpt lat="48.1929" lon="7.3343">
        <ele>1079</ele>
        <time>2017-07-13T13:54:44Z</time>
      </trkpt>
      <trkpt lat="48.2055" lon="7.3375">
        <ele>1079</ele>
        <time>2017-07-13T13:55:11Z</time>
      </trkpt>
      <trkpt lat="48.2132" lon="7.3405">
        <ele>1068</ele>
        <time>2017-07-13T13:55:28Z</time>
      </trkpt>
      <trkpt lat="48.2155" lon="7.3408">
        <ele>1064</ele>
        <time>2017-07-13T13:55:33Z</time>
      </trkpt>
      <trkpt lat="48.2275" lon="7.3411">
        <ele>1030</ele>
        <time>2017-07-13T13:56:00Z</time>
      </trkpt>
      <trkpt lat="48.2295" lon="7.3407">
        <ele>1019</ele>
        <time>2017-07-13T13:56:05Z</time>
      </trkpt>
      <trkpt lat="48.2316" lon="7.34">
        <ele>1010</ele>
        <time>2017-07-13T13:56:10Z</time>
      </trkpt>
      <trkpt lat="48.2336" lon="7.3391">
        <ele>1003</ele>
        <time>2017-07-13T13:56:15Z</time>
      </trkpt>
      <trkpt lat="48.2405" lon="7.3349">
        <ele>1000</ele>
        <time>2017-07-13T13:56:33Z</time>
      </trkpt>
      <trkpt lat="48.2425" lon="7.3333">
        <ele>996</ele>
        <time>2017-07-13T13:56:38Z</time>
      </trkpt>
      <trkpt lat="48.2475" lon="7.3281">
        <ele>996</ele>
        <time>2017-07-13T13:56:52Z</time>
      </trkpt>
      <trkpt lat="48.2499" lon="7.3252">
        <ele>992</ele>
        <time>2017-07-13T13:56:59Z</time>
      </trkpt>
      <trkpt lat="48.2516" lon="7.3271">
        <ele>988</ele>
        <time>2017-07-13T13:57:05Z</time>
      </trkpt>
      <trkpt lat="48.2529" lon="7.3346">
        <ele>963</ele>
        <time>2017-07-13T13:57:17Z</time>
      </trkpt>
      <trkpt lat="48.254" lon="7.338">
        <ele>954</ele>
        <time>2017-07-13T13:57:23Z</time>
      </trkpt>
      <trkpt lat="48.2558" lon="7.3426">
        <ele>943</ele>
        <time>2017-07-13T13:57:32Z</time>
      </trkpt>
      <trkpt lat="48.2582" lon="7.3475">
        <ele>932</ele>
        <time>2017-07-13T13:57:42Z</time>
      </trkpt>
      <trkpt lat="48.2586" lon="7.3505">
        <ele>933</ele>
        <time>2017-07-13T13:57:47Z</time>
      </trkpt>
      <trkpt lat="48.2583" lon="7.3534">
        <ele>934</ele>
        <time>2017-07-13T13:57:52Z</time>
      </trkpt>
      <trkpt lat="48.2575" lon="7.3581">
        <ele>930</ele>
        <time>2017-07-13T13:58:00Z</time>
      </trkpt>
      <trkpt lat="48.2566" lon="7.3611">
        <ele>928</ele>
        <time>2017-07-13T13:58:05Z</time>
      </trkpt>
      <trkpt lat="48.2553" lon="7.3637">
        <ele>932</ele>
        <time>2017-07-13T13:58:10Z</time>
      </trkpt>
      <trkpt lat="48.2538" lon="7.366">
        <ele>935</ele>
        <time>2017-07-13T13:58:15Z</time>
      </trkpt>
      <trkpt lat="48.2518" lon="7.366">
        <ele>937</ele>
        <time>2017-07-13T13:58:21Z</time>
      </trkpt>
      <trkpt lat="48.25" lon="7.3598">
        <ele>931</ele>
        <time>2017-07-13T13:58:29Z</time>
      </trkpt>
      <trkpt lat="48.2461" lon="7.3499">
        <ele>928</ele>
        <time>2017-07-13T13:58:46Z</time>
      </trkpt>
      <trkpt lat="48.244" lon="7.3455">
        <ele>928</ele>
        <time>2017-07-13T13:58:55Z</time>
      </trkpt>
      <trkpt lat="48.2423" lon="7.3423">
        <ele>929</ele>
        <time>2017-07-13T13:59:02Z</time>
      </trkpt>
      <trkpt lat="48.2406" lon="7.3405">
        <ele>930</ele>
        <time>2017-07-13T13:59:07Z</time>
      </trkpt>
      <trkpt lat="48.2385" lon="7.3404">
        <ele>929</ele>
        <time>2017-07-13T13:59:12Z</time>
      </trkpt>
      <trkpt lat="48.2366" lon="7.3418">
        <ele>931</ele>
        <time>2017-07-13T13:59:17Z</time>
      </trkpt>
      <trkpt lat="48.2352" lon="7.3442">
        <ele>936</ele>
        <time>2017-07-13T13:59:22Z</time>
      </trkpt>
      <trkpt lat="48.2301" lon="7.3544">
        <ele>939</ele>
        <time>2017-07-13T13:59:41Z</time>
      </trkpt>
      <trkpt lat="48.2246" lon="7.3667">
        <ele>950</ele>
        <time>2017-07-13T14:00:02Z</time>
      </trkpt>
      <trkpt lat="48.2207" lon="7.3767">
        <ele>958</ele>
        <time>2017-07-13T14:00:18Z</time>
      </trkpt>
      <trkpt lat="48.2191" lon="7.3794">
        <ele>962</ele>
        <time>2017-07-13T14:00:23Z</time>
      </trkpt>
      <trkpt lat="48.2017" lon="7.4051">
        <ele>975</ele>
        <time>2017-07-13T14:01:12Z</time>
      </trkpt>
      <trkpt lat="48.1964" lon="7.4157">
        <ele>986</ele>
        <time>2017-07-13T14:01:30Z</time>
      </trkpt>
      <trkpt lat="48.1946" lon="7.4181">
        <ele>989</ele>
        <time>2017-07-13T14:01:35Z</time>
      </trkpt>
      <trkpt lat="48.1892" lon="7.4237">
        <ele>996</ele>
        <time>2017-07-13T14:01:48Z</time>
      </trkpt>
      <trkpt lat="48.1815" lon="7.4322">
        <ele>1002</ele>
        <time>2017-07-13T14:02:07Z</time>
      </trkpt>
      <trkpt lat="48.1569" lon="7.4603">
        <ele>1017</ele>
        <time>2017-07-13T14:03:07Z</time>
      </trkpt>
      <trkpt lat="48.1307" lon="7.485">
        <ele>1012</ele>
        <time>2017-07-13T14:04:07Z</time>
      </trkpt>
      <trkpt lat="48.1184" lon="7.4959">
        <ele>1012</ele>
        <time>2017-07-13T14:04:34Z</time>
      </trkpt>
      <trkpt lat="48.0906" lon="7.5157">
        <ele>1024</ele>
        <time>2017-07-13T14:05:34Z</time>
      </trkpt>
      <trkpt lat="48.0863" lon="7.5183">
        <ele>1025</ele>
        <time>2017-07-13T14:05:43Z</time>
      </trkpt>
      <trkpt lat="48.0745" lon="7.5237">
        <ele>1033</ele>
        <time>2017-07-13T14:06:07Z</time>
      </trkpt>
      <trkpt lat="48.0432" lon="7.5355">
        <ele>1042</ele>
        <time>2017-07-13T14:07:07Z</time>
      </trkpt>
      <trkpt lat="48.0318" lon="7.5403">
        <ele>1039</ele>
        <time>2017-07-13T14:07:29Z</time>
      </trkpt>
      <trkpt lat="48.0236" lon="7.5443">
        <ele>1033</ele>
        <time>2017-07-13T14:07:45Z</time>
      </trkpt>
      <trkpt lat="48.021" lon="7.5449">
        <ele>1032</ele>
        <time>2017-07-13T14:07:50Z</time>
      </trkpt>
      <trkpt lat="48.0184" lon="7.5447">
        <ele>1032</ele>
        <time>2017-07-13T14:07:55Z</time>
      </trkpt>
      <trkpt lat="48.0158" lon="7.5439">
        <ele>1030</ele>
        <time>2017-07-13T14:08:00Z</time>
      </trkpt>
      <trkpt lat="48.0134" lon="7.5427">
        <ele>1028</ele>
        <time>2017-07-13T14:08:05Z</time>
      </trkpt>
      <trkpt lat="48.011" lon="7.541">
        <ele>1026</ele>
        <time>2017-07-13T14:08:10Z</time>
      </trkpt>
      <trkpt lat="48.0079" lon="7.5381">
        <ele>1024</ele>
        <time>2017-07-13T14:08:17Z</time>
      </trkpt>
      <trkpt lat="48.0053" lon="7.5353">
        <ele>1023</ele>
        <time>2017-07-13T14:08:23Z</time>
      </trkpt>
      <trkpt lat="47.9842" lon="7.5084">
        <ele>1015</ele>
        <time>2017-07-13T14:09:15Z</time>
      </trkpt>
      <trkpt lat="47.9819" lon="7.5064">
        <ele>1014</ele>
        <time>2017-07-13T14:09:20Z</time>
      </trkpt>
      <trkpt lat="47.979" lon="7.5042">
        <ele>1013</ele>
        <time>2017-07-13T14:09:26Z</time>
      </trkpt>
      <trkpt lat="47.949" lon="7.4871">
        <ele>1007</ele>
        <time>2017-07-13T14:10:26Z</time>
      </trkpt>
      <trkpt lat="47.9276" lon="7.4746">
        <ele>1002</ele>
        <time>2017-07-13T14:11:11Z</time>
      </trkpt>
      <trkpt lat="47.9066" lon="7.4611">
        <ele>992</ele>
        <time>2017-07-13T14:11:55Z</time>
      </trkpt>
      <trkpt lat="47.9044" lon="7.4589">
        <ele>989</ele>
        <time>2017-07-13T14:12:00Z</time>
      </trkpt>
      <trkpt lat="47.9024" lon="7.4562">
        <ele>987</ele>
        <time>2017-07-13T14:12:05Z</time>
      </trkpt>
      <trkpt lat="47.8936" lon="7.4413">
        <ele>977</ele>
        <time>2017-07-13T14:12:30Z</time>
      </trkpt>
      <trkpt lat="47.891" lon="7.4358">
        <ele>971</ele>
        <time>2017-07-13T14:12:39Z</time>
      </trkpt>
      <trkpt lat="47.8895" lon="7.4317">
        <ele>967</ele>
        <time>2017-07-13T14:12:45Z</time>
      </trkpt>
      <trkpt lat="47.8809" lon="7.4075">
        <ele>900</ele>
        <time>2017-07-13T14:13:19Z</time>
      </trkpt>
      <trkpt lat="47.8794" lon="7.4041">
        <ele>895</ele>
        <time>2017-07-13T14:13:24Z</time>
      </trkpt>
      <trkpt lat="47.8776" lon="7.4011">
        <ele>895</ele>
        <time>2017-07-13T14:13:29Z</time>
      </trkpt>
      <trkpt lat="47.8749" lon="7.3974">
        <ele>885</ele>
        <time>2017-07-13T14:13:36Z</time>
      </trkpt>
      <trkpt lat="47.8728" lon="7.3951">
        <ele>882</ele>
        <time>2017-07-13T14:13:41Z</time>
      </trkpt>
      <trkpt lat="47.8705" lon="7.3934">
        <ele>881</ele>
        <time>2017-07-13T14:13:46Z</time>
      </trkpt>
      <trkpt lat="47.8681" lon="7.3924">
        <ele>879</ele>
        <time>2017-07-13T14:13:51Z</time>
      </trkpt>
      <trkpt lat="47.8655" lon="7.3918">
        <ele>877</ele>
        <time>2017-07-13T14:13:56Z</time>
      </trkpt>
      <trkpt lat="47.8524" lon="7.3903">
        <ele>854</ele>
        <time>2017-07-13T14:14:22Z</time>
      </trkpt>
      <trkpt lat="47.8234" lon="7.3909">
        <ele>763</ele>
        <time>2017-07-13T14:15:17Z</time>
      </trkpt>
      <trkpt lat="47.811" lon="7.3928">
        <ele>697</ele>
        <time>2017-07-13T14:15:42Z</time>
      </trkpt>
      <trkpt lat="47.8002" lon="7.396">
        <ele>656</ele>
        <time>2017-07-13T14:16:05Z</time>
      </trkpt>
      <trkpt lat="47.7847" lon="7.4036">
        <ele>601</ele>
        <time>2017-07-13T14:16:40Z</time>
      </trkpt>
      <trkpt lat="47.7726" lon="7.4113">
        <ele>601</ele>
        <time>2017-07-13T14:17:07Z</time>
      </trkpt>
      <trkpt lat="47.7556" lon="7.4223">
        <ele>653</ele>
        <time>2017-07-13T14:17:44Z</time>
      </trkpt>
      <trkpt lat="47.7513" lon="7.4246">
        <ele>655</ele>
        <time>2017-07-13T14:17:53Z</time>
      </trkpt>
      <trkpt lat="47.7497" lon="7.4271">
        <ele>651</ele>
        <time>2017-07-13T14:17:58Z</time>
      </trkpt>
      <trkpt lat="47.7498" lon="7.4307">
        <ele>643</ele>
        <time>2017-07-13T14:18:03Z</time>
      </trkpt>
      <trkpt lat="47.7509" lon="7.4337">
        <ele>625</ele>
        <time>2017-07-13T14:18:08Z</time>
      </trkpt>
      <trkpt lat="47.7521" lon="7.4369">
        <ele>598</ele>
        <time>2017-07-13T14:18:14Z</time>
      </trkpt>
      <trkpt lat="47.7533" lon="7.4396">
        <ele>580</ele>
        <time>2017-07-13T14:18:19Z</time>
      </trkpt>
      <trkpt lat="47.7548" lon="7.4419">
        <ele>571</ele>
        <time>2017-07-13T14:18:24Z</time>
      </trkpt>
      <trkpt lat="47.7566" lon="7.4437">
        <ele>565</ele>
        <time>2017-07-13T14:18:29Z</time>
      </trkpt>
      <trkpt lat="47.762" lon="7.4476">
        <ele>553</ele>
        <time>2017-07-13T14:18:44Z</time>
      </trkpt>
      <trkpt lat="47.7668" lon="7.4501">
        <ele>541</ele>
        <time>2017-07-13T14:18:57Z</time>
      </trkpt>
      <trkpt lat="47.7698" lon="7.4515">
        <ele>540</ele>
        <time>2017-07-13T14:19:05Z</time>
      </trkpt>
      <trkpt lat="47.7714" lon="7.4534">
        <ele>542</ele>
        <time>2017-07-13T14:19:10Z</time>
      </trkpt>
      <trkpt lat="47.7718" lon="7.4563">
        <ele>544</ele>
        <time>2017-07-13T14:19:15Z</time>
      </trkpt>
      <trkpt lat="47.7712" lon="7.4594">
        <ele>545</ele>
        <time>2017-07-13T14:19:20Z</time>
      </trkpt>
      <trkpt lat="47.7702" lon="7.4622">
        <ele>543</ele>
        <time>2017-07-13T14:19:25Z</time>
      </trkpt>
      <trkpt lat="47.769" lon="7.4647">
        <ele>542</ele>
        <time>2017-07-13T14:19:30Z</time>
      </trkpt>
      <trkpt lat="47.7676" lon="7.4671">
        <ele>542</ele>
        <time>2017-07-13T14:19:35Z</time>
      </trkpt>
      <trkpt lat="47.766" lon="7.469">
        <ele>543</ele>
        <time>2017-07-13T14:19:40Z</time>
      </trkpt>
      <trkpt lat="47.7641" lon="7.4704">
        <ele>543</ele>
        <time>2017-07-13T14:19:45Z</time>
      </trkpt>
      <trkpt lat="47.762" lon="7.471">
        <ele>546</ele>
        <time>2017-07-13T14:19:50Z</time>
      </trkpt>
      <trkpt lat="47.7599" lon="7.4708">
        <ele>548</ele>
        <time>2017-07-13T14:19:55Z</time>
      </trkpt>
      <trkpt lat="47.7577" lon="7.47">
        <ele>551</ele>
        <time>2017-07-13T14:20:00Z</time>
      </trkpt>
      <trkpt lat="47.7526" lon="7.4678">
        <ele>552</ele>
        <time>2017-07-13T14:20:12Z</time>
      </trkpt>
      <trkpt lat="47.7461" lon="7.4638">
        <ele>545</ele>
        <time>2017-07-13T14:20:28Z</time>
      </trkpt>
      <trkpt lat="47.7357" lon="7.4565">
        <ele>539</ele>
        <time>2017-07-13T14:20:55Z</time>
      </trkpt>
      <trkpt lat="47.7316" lon="7.4528">
        <ele>534</ele>
        <time>2017-07-13T14:21:07Z</time>
      </trkpt>
      <trkpt lat="47.7228" lon="7.4459">
        <ele>492</ele>
        <time>2017-07-13T14:21:32Z</time>
      </trkpt>
      <trkpt lat="47.7213" lon="7.4441">
        <ele>479</ele>
        <time>2017-07-13T14:21:37Z</time>
      </trkpt>
      <trkpt lat="47.7207" lon="7.4417">
        <ele>467</ele>
        <time>2017-07-13T14:21:42Z</time>
      </trkpt>
      <trkpt lat="47.7208" lon="7.4389">
        <ele>455</ele>
        <time>2017-07-13T14:21:47Z</time>
      </trkpt>
      <trkpt lat="47.7214" lon="7.4365">
        <ele>439</ele>
        <time>2017-07-13T14:21:52Z</time>
      </trkpt>
      <trkpt lat="47.7224" lon="7.4346">
        <ele>427</ele>
        <time>2017-07-13T14:21:57Z</time>
      </trkpt>
      <trkpt lat="47.7237" lon="7.4332">
        <ele>418</ele>
        <time>2017-07-13T14:22:02Z</time>
      </trkpt>
      <trkpt lat="47.7287" lon="7.4287">
        <ele>358</ele>
        <time>2017-07-13T14:22:19Z</time>
      </trkpt>
      <trkpt lat="47.7313" lon="7.4268">
        <ele>337</ele>
        <time>2017-07-13T14:22:27Z</time>
      </trkpt>
      <trkpt lat="47.7328" lon="7.4266">
        <ele>329</ele>
        <time>2017-07-13T14:22:32Z</time>
      </trkpt>
      <trkpt lat="47.7342" lon="7.4276">
        <ele>321</ele>
        <time>2017-07-13T14:22:37Z</time>
      </trkpt>
      <trkpt lat="47.7386" lon="7.4304">
        <ele>285</ele>
        <time>2017-07-13T14:22:54Z</time>
      </trkpt>
      <trkpt lat="47.7396" lon="7.4309">
        <ele>282</ele>
        <time>2017-07-13T14:22:59Z</time>
      </trkpt>
      <trkpt lat="47.7408" lon="7.4317">
        <ele>287</ele>
        <time>2017-07-13T14:23:06Z</time>
      </trkpt>
      <trkpt lat="47.7418" lon="7.4323">
        <ele>288</ele>
        <time>2017-07-13T14:23:13Z</time>
      </trkpt>
      <trkpt lat="47.7429" lon="7.433">
        <ele>284</ele>
        <time>2017-07-13T14:23:23Z</time>
      </trkpt>
      <trkpt lat="47.7434" lon="7.4333">
        <ele>282</ele>
        <time>2017-07-13T14:23:28Z</time>
      </trkpt>
      <trkpt lat="47.7437" lon="7.4334">
        <ele>281</ele>
        <time>2017-07-13T14:23:33Z</time>
      </trkpt>
      <trkpt lat="47.7439" lon="7.4332">
        <ele>280</ele>
        <time>2017-07-13T14:23:38Z</time>
      </trkpt>
      <trkpt lat="47.744" lon="7.4328">
        <ele>280</ele>
        <time>2017-07-13T14:23:43Z</time>
      </trkpt>
      <trkpt lat="47.7443" lon="7.4316">
        <ele>278</ele>
        <time>2017-07-13T14:23:58Z</time>
      </trkpt>
      <trkpt lat="47.7443" lon="7.4312">
        <ele>277</ele>
        <time>2017-07-13T14:24:03Z</time>
      </trkpt>
      <trkpt lat="47.7442" lon="7.4309">
        <ele>274</ele>
        <time>2017-07-13T14:24:08Z</time>
      </trkpt>
      <trkpt lat="47.7441" lon="7.4305">
        <ele>272</ele>
        <time>2017-07-13T14:24:13Z</time>
      </trkpt>
      <trkpt lat="47.7439" lon="7.4299">
        <ele>269</ele>
        <time>2017-07-13T14:24:21Z</time>
      </trkpt>
      <trkpt lat="47.744" lon="7.4296">
        <ele>267</ele>
        <time>2017-07-13T14:24:26Z</time>
      </trkpt>
      <trkpt lat="47.7442" lon="7.4294">
        <ele>266</ele>
        <time>2017-07-13T14:24:31Z</time>
      </trkpt>
      <trkpt lat="47.7444" lon="7.4293">
        <ele>265</ele>
        <time>2017-07-13T14:24:36Z</time>
      </trkpt>
      <trkpt lat="47.7447" lon="7.4292">
        <ele>264</ele>
        <time>2017-07-13T14:24:41Z</time>
      </trkpt>
      <trkpt lat="47.7462" lon="7.4284">
        <ele>263</ele>
        <time>2017-07-13T14:25:04Z</time>
      </trkpt>
      <trkpt lat="47.7463" lon="7.4281">
        <ele>263</ele>
        <time>2017-07-13T14:25:09Z</time>
      </trkpt>
      <trkpt lat="47.7462" lon="7.4278">
        <ele>263</ele>
        <time>2017-07-13T14:25:14Z</time>
      </trkpt>
      <trkpt lat="47.7461" lon="7.4274">
        <ele>262</ele>
        <time>2017-07-13T14:25:19Z</time>
      </trkpt>
      <trkpt lat="47.746" lon="7.427">
        <ele>262</ele>
        <time>2017-07-13T14:25:24Z</time>
      </trkpt>
      <trkpt lat="47.7454" lon="7.4248">
        <ele>260</ele>
        <time>2017-07-13T14:25:48Z</time>
      </trkpt>
      <trkpt lat="47.7453" lon="7.4246">
        <ele>260</ele>
        <time>2017-07-13T14:25:53Z</time>
      </trkpt>
      <trkpt lat="47.7451" lon="7.4245">
        <ele>259</ele>
        <time>2017-07-13T14:25:58Z</time>
      </trkpt>
      <trkpt lat="47.745" lon="7.4243">
        <ele>258</ele>
        <time>2017-07-13T14:26:03Z</time>
      </trkpt>
      <trkpt lat="47.7449" lon="7.4241">
        <ele>258</ele>
        <time>2017-07-13T14:26:08Z</time>
      </trkpt>
      <trkpt lat="47.745" lon="7.4239">
        <ele>258</ele>
        <time>2017-07-13T14:26:13Z</time>
      </trkpt>
      <trkpt lat="47.7451" lon="7.4239">
        <ele>258</ele>
        <time>2017-07-13T14:26:24Z</time>
      </trkpt>
      <trkpt lat="47.7451" lon="7.4238">
        <ele>259</ele>
        <time>2017-07-13T14:27:24Z</time>
      </trkpt>
    </trkseg>
  </trk>
</gpx>